Siegerland Airport EDGS

Flugplatz Daten

Name: Siegerland Airport

Ident: EDGS

Lat: 50,70769882

Long: 8,082969666

Platzhöhe: 1966 ft

IataCode: SGE

City:

Metar

2021/10/25 17:50
EDGS 251750Z 19006KT 9999 FEW031 08/04 Q1018

Taf

Gewünschte Webcam nicht vorhanden? Dann fügen Sie eine hinzu. Sie wird dann so schnell wie möglich freigeschaltet
Url: Title: